Wilson, WY (83014)

3:05 PM MST on February 08, 2016 (GMT -0700)
KWYWILSO4 | | Change Station
CLOSE
Current Station
Personal Weather Station
Location: Wilson, WY
Elevation: 6542 ft
Nearby Weather Stations

Elev 6542 ft 43.47 °N, 110.89 °W | Updated 48 minutes ago

Clear
Clear
38.2 °F
Feels Like 38 °F
N
3.0
Wind Variable Wind from ENE
Gusts 4.0 mph

Today
High -- | Low -- °F
--% Chance of Precip.
Yesterday
High -- | Low -- °F
Precip. -- in
Pressure 30.57 in
Visibility 10.0 miles
Clouds Clear
Windchill 38 °F
Dew Point 22 °F
Humidity 52%
Rainfall 0.03 in
Snow Depth Not available.
7:31 AM 5:44 PM
New Moon, 0% visible
METAR KJAC 082151Z 00000KT 10SM CLR M01/M06 A3057
Pressure 30.57 in
Visibility 10.0 miles
Clouds Clear
Windchill 38 °F
Dew Point 22 °F
Humidity 52%
Rainfall 0.03 in
Snow Depth Not available.
7:31 AM 5:44 PM
New Moon, 0% visible
METAR KJAC 082151Z 00000KT 10SM CLR M01/M06 A3057

10-Day Weather Forecast

Almanac

Astronomy

Feb. 08, 2016 Rise Set
Actual Time
Civil Twilight
Nautical Twilight
Astronomical Twilight
Moon
Length of Visible Light
Length of Day
Tomorrow will be .
, % of the Moon is Illuminated

Today's Extremes

State Highs State Lows

Community

WunderPhotos

Upload Photos

1,891,511 photos uploaded!

WunderBlog® & News

Nearby

Air Quality

  Air Quality AQ Index Pollutant
Not available.

Snow Depth

Station Depth Elevation

Earthquake Activity

City Distance Mag. Time & Date
Minimum magnitude displayed is 2.5.

Coastal Water Temperatures

Place Temperature

Stations

Nearby Weather Stations

Station Location Temp. Windchill Dew Point Humidity Wind Precip. Elev Updated Type
                   

Watches & Warnings

There are currently no watches in effect.